sensor_id;sensor_type;location;lat;lon;timestamp;P1;durP1;ratioP1;P2;durP2;ratioP2
7375;SDS011;3728;42.266;24.944;2023-11-21T00:00:19;11.23;;;6.67;;
7375;SDS011;3728;42.266;24.944;2023-11-21T00:02:46;11.90;;;6.10;;
7375;SDS011;3728;42.266;24.944;2023-11-21T00:05:14;13.93;;;7.53;;
7375;SDS011;3728;42.266;24.944;2023-11-21T00:07:42;17.17;;;8.10;;
7375;SDS011;3728;42.266;24.944;2023-11-21T00:10:10;17.40;;;7.37;;
7375;SDS011;3728;42.266;24.944;2023-11-21T00:12:41;18.50;;;8.80;;
7375;SDS011;3728;42.266;24.944;2023-11-21T00:15:09;15.27;;;8.00;;
7375;SDS011;3728;42.266;24.944;2023-11-21T00:17:39;19.23;;;9.93;;
7375;SDS011;3728;42.266;24.944;2023-11-21T00:20:07;15.03;;;7.27;;
7375;SDS011;3728;42.266;24.944;2023-11-21T00:22:35;11.97;;;7.73;;
7375;SDS011;3728;42.266;24.944;2023-11-21T00:25:03;14.03;;;8.47;;
7375;SDS011;3728;42.266;24.944;2023-11-21T00:27:31;16.83;;;9.40;;
7375;SDS011;3728;42.266;24.944;2023-11-21T00:29:58;22.33;;;11.60;;
7375;SDS011;3728;42.266;24.944;2023-11-21T00:32:25;20.73;;;11.27;;
7375;SDS011;3728;42.266;24.944;2023-11-21T00:34:52;23.10;;;12.83;;
7375;SDS011;3728;42.266;24.944;2023-11-21T00:37:21;17.33;;;10.00;;
7375;SDS011;3728;42.266;24.944;2023-11-21T00:39:48;16.37;;;7.53;;
7375;SDS011;3728;42.266;24.944;2023-11-21T00:42:15;11.03;;;6.73;;
7375;SDS011;3728;42.266;24.944;2023-11-21T00:44:44;11.57;;;6.87;;
7375;SDS011;3728;42.266;24.944;2023-11-21T00:47:11;12.10;;;7.07;;
7375;SDS011;3728;42.266;24.944;2023-11-21T00:49:39;10.83;;;5.77;;
7375;SDS011;3728;42.266;24.944;2023-11-21T00:52:06;10.63;;;5.50;;
7375;SDS011;3728;42.266;24.944;2023-11-21T00:54:33;8.57;;;4.10;;
7375;SDS011;3728;42.266;24.944;2023-11-21T00:57:01;5.93;;;4.03;;
7375;SDS011;3728;42.266;24.944;2023-11-21T00:59:28;5.10;;;3.60;;
7375;SDS011;3728;42.266;24.944;2023-11-21T01:01:57;5.60;;;3.30;;
7375;SDS011;3728;42.266;24.944;2023-11-21T01:04:27;5.23;;;3.33;;
7375;SDS011;3728;42.266;24.944;2023-11-21T01:06:54;5.07;;;3.73;;
7375;SDS011;3728;42.266;24.944;2023-11-21T01:09:24;4.27;;;2.77;;
7375;SDS011;3728;42.266;24.944;2023-11-21T01:11:52;3.97;;;2.70;;
7375;SDS011;3728;42.266;24.944;2023-11-21T01:14:20;6.07;;;2.83;;
7375;SDS011;3728;42.266;24.944;2023-11-21T01:16:47;2.50;;;2.30;;
7375;SDS011;3728;42.266;24.944;2023-11-21T01:19:15;3.77;;;2.40;;
7375;SDS011;3728;42.266;24.944;2023-11-21T01:21:42;4.83;;;2.13;;
7375;SDS011;3728;42.266;24.944;2023-11-21T01:24:09;2.80;;;2.20;;
7375;SDS011;3728;42.266;24.944;2023-11-21T01:26:36;2.57;;;1.90;;
7375;SDS011;3728;42.266;24.944;2023-11-21T01:29:03;2.17;;;1.93;;
7375;SDS011;3728;42.266;24.944;2023-11-21T01:31:31;4.03;;;2.20;;
7375;SDS011;3728;42.266;24.944;2023-11-21T01:33:58;4.33;;;2.30;;
7375;SDS011;3728;42.266;24.944;2023-11-21T01:36:33;2.37;;;1.90;;
7375;SDS011;3728;42.266;24.944;2023-11-21T01:39:00;1.73;;;1.63;;
7375;SDS011;3728;42.266;24.944;2023-11-21T01:41:27;2.17;;;1.87;;
7375;SDS011;3728;42.266;24.944;2023-11-21T01:43:55;4.80;;;2.03;;
7375;SDS011;3728;42.266;24.944;2023-11-21T01:46:23;3.53;;;2.23;;
7375;SDS011;3728;42.266;24.944;2023-11-21T01:48:51;4.33;;;2.43;;
7375;SDS011;3728;42.266;24.944;2023-11-21T01:51:19;4.87;;;2.47;;
7375;SDS011;3728;42.266;24.944;2023-11-21T01:53:47;2.00;;;1.70;;
7375;SDS011;3728;42.266;24.944;2023-11-21T01:56:15;1.57;;;1.47;;
7375;SDS011;3728;42.266;24.944;2023-11-21T01:58:45;2.87;;;1.60;;
7375;SDS011;3728;42.266;24.944;2023-11-21T02:01:13;1.57;;;1.33;;
7375;SDS011;3728;42.266;24.944;2023-11-21T02:03:41;2.03;;;1.10;;
7375;SDS011;3728;42.266;24.944;2023-11-21T02:06:08;2.10;;;1.20;;
7375;SDS011;3728;42.266;24.944;2023-11-21T02:08:35;1.47;;;1.20;;
7375;SDS011;3728;42.266;24.944;2023-11-21T02:11:04;1.60;;;1.27;;
7375;SDS011;3728;42.266;24.944;2023-11-21T02:13:32;1.73;;;1.23;;
7375;SDS011;3728;42.266;24.944;2023-11-21T02:16:01;1.73;;;1.20;;
7375;SDS011;3728;42.266;24.944;2023-11-21T02:18:28;1.67;;;1.17;;
7375;SDS011;3728;42.266;24.944;2023-11-21T02:20:56;1.37;;;1.17;;
7375;SDS011;3728;42.266;24.944;2023-11-21T02:23:23;1.30;;;1.20;;
7375;SDS011;3728;42.266;24.944;2023-11-21T02:25:55;3.23;;;1.10;;
7375;SDS011;3728;42.266;24.944;2023-11-21T02:28:23;1.13;;;1.00;;
7375;SDS011;3728;42.266;24.944;2023-11-21T02:30:52;1.00;;;0.90;;
7375;SDS011;3728;42.266;24.944;2023-11-21T02:33:24;2.20;;;1.07;;
7375;SDS011;3728;42.266;24.944;2023-11-21T02:35:51;1.20;;;1.10;;
7375;SDS011;3728;42.266;24.944;2023-11-21T02:38:21;1.87;;;1.07;;
7375;SDS011;3728;42.266;24.944;2023-11-21T02:40:48;2.77;;;1.37;;
7375;SDS011;3728;42.266;24.944;2023-11-21T02:43:16;1.23;;;0.90;;
7375;SDS011;3728;42.266;24.944;2023-11-21T02:45:44;1.83;;;1.10;;
7375;SDS011;3728;42.266;24.944;2023-11-21T02:48:12;1.80;;;1.30;;
7375;SDS011;3728;42.266;24.944;2023-11-21T02:50:39;1.37;;;1.17;;
7375;SDS011;3728;42.266;24.944;2023-11-21T02:53:07;1.47;;;1.03;;
7375;SDS011;3728;42.266;24.944;2023-11-21T02:55:34;1.40;;;1.30;;
7375;SDS011;3728;42.266;24.944;2023-11-21T02:58:02;2.30;;;1.20;;
7375;SDS011;3728;42.266;24.944;2023-11-21T03:00:32;1.57;;;1.10;;
7375;SDS011;3728;42.266;24.944;2023-11-21T03:03:00;1.63;;;1.20;;
7375;SDS011;3728;42.266;24.944;2023-11-21T03:05:27;3.53;;;1.27;;
7375;SDS011;3728;42.266;24.944;2023-11-21T03:07:55;1.80;;;1.50;;
7375;SDS011;3728;42.266;24.944;2023-11-21T03:10:24;3.20;;;1.87;;
7375;SDS011;3728;42.266;24.944;2023-11-21T03:12:54;1.30;;;1.13;;
7375;SDS011;3728;42.266;24.944;2023-11-21T03:15:23;1.50;;;1.10;;
7375;SDS011;3728;42.266;24.944;2023-11-21T03:17:51;2.37;;;2.00;;
7375;SDS011;3728;42.266;24.944;2023-11-21T03:20:21;5.30;;;3.07;;
7375;SDS011;3728;42.266;24.944;2023-11-21T03:22:48;4.93;;;3.00;;
7375;SDS011;3728;42.266;24.944;2023-11-21T03:25:15;3.97;;;2.40;;
7375;SDS011;3728;42.266;24.944;2023-11-21T03:27:44;6.63;;;3.67;;
7375;SDS011;3728;42.266;24.944;2023-11-21T03:30:11;5.00;;;2.43;;
7375;SDS011;3728;42.266;24.944;2023-11-21T03:32:38;6.40;;;2.23;;
7375;SDS011;3728;42.266;24.944;2023-11-21T03:35:06;2.40;;;1.90;;
7375;SDS011;3728;42.266;24.944;2023-11-21T03:37:33;2.70;;;1.97;;
7375;SDS011;3728;42.266;24.944;2023-11-21T03:40:01;2.93;;;2.13;;
7375;SDS011;3728;42.266;24.944;2023-11-21T03:42:31;3.73;;;3.43;;
7375;SDS011;3728;42.266;24.944;2023-11-21T03:44:58;5.70;;;2.77;;
7375;SDS011;3728;42.266;24.944;2023-11-21T03:47:26;4.00;;;3.60;;
7375;SDS011;3728;42.266;24.944;2023-11-21T03:49:54;3.70;;;3.20;;
7375;SDS011;3728;42.266;24.944;2023-11-21T03:52:21;4.13;;;2.80;;
7375;SDS011;3728;42.266;24.944;2023-11-21T03:54:48;4.00;;;3.10;;
7375;SDS011;3728;42.266;24.944;2023-11-21T03:57:16;6.03;;;3.53;;
7375;SDS011;3728;42.266;24.944;2023-11-21T03:59:43;5.30;;;2.70;;
7375;SDS011;3728;42.266;24.944;2023-11-21T04:02:10;6.50;;;4.10;;
7375;SDS011;3728;42.266;24.944;2023-11-21T04:04:37;7.23;;;3.90;;
7375;SDS011;3728;42.266;24.944;2023-11-21T04:07:07;5.87;;;3.70;;
7375;SDS011;3728;42.266;24.944;2023-11-21T04:09:35;4.80;;;3.63;;
7375;SDS011;3728;42.266;24.944;2023-11-21T04:12:03;5.73;;;3.77;;
7375;SDS011;3728;42.266;24.944;2023-11-21T04:14:30;6.27;;;3.80;;
7375;SDS011;3728;42.266;24.944;2023-11-21T04:16:58;8.40;;;3.87;;
7375;SDS011;3728;42.266;24.944;2023-11-21T04:19:25;4.63;;;3.47;;
7375;SDS011;3728;42.266;24.944;2023-11-21T04:21:52;3.47;;;3.17;;
7375;SDS011;3728;42.266;24.944;2023-11-21T04:24:20;5.73;;;3.60;;
7375;SDS011;3728;42.266;24.944;2023-11-21T04:26:47;4.50;;;3.53;;
7375;SDS011;3728;42.266;24.944;2023-11-21T04:29:14;5.93;;;3.87;;
7375;SDS011;3728;42.266;24.944;2023-11-21T04:31:41;6.43;;;4.20;;
7375;SDS011;3728;42.266;24.944;2023-11-21T04:34:08;5.30;;;4.40;;
7375;SDS011;3728;42.266;24.944;2023-11-21T04:36:35;9.50;;;5.60;;
7375;SDS011;3728;42.266;24.944;2023-11-21T04:39:03;9.77;;;5.63;;
7375;SDS011;3728;42.266;24.944;2023-11-21T04:41:30;10.73;;;5.47;;
7375;SDS011;3728;42.266;24.944;2023-11-21T04:43:58;12.33;;;6.53;;
7375;SDS011;3728;42.266;24.944;2023-11-21T04:46:28;14.17;;;8.40;;
7375;SDS011;3728;42.266;24.944;2023-11-21T04:48:55;17.87;;;10.87;;
7375;SDS011;3728;42.266;24.944;2023-11-21T04:51:23;23.53;;;16.27;;
7375;SDS011;3728;42.266;24.944;2023-11-21T04:53:50;29.00;;;17.83;;
7375;SDS011;3728;42.266;24.944;2023-11-21T04:56:17;16.30;;;11.10;;
7375;SDS011;3728;42.266;24.944;2023-11-21T04:58:48;12.53;;;7.73;;
7375;SDS011;3728;42.266;24.944;2023-11-21T05:01:15;12.93;;;6.63;;
7375;SDS011;3728;42.266;24.944;2023-11-21T05:03:45;11.63;;;5.73;;
7375;SDS011;3728;42.266;24.944;2023-11-21T05:06:13;7.37;;;5.57;;
7375;SDS011;3728;42.266;24.944;2023-11-21T05:08:41;12.20;;;6.00;;
7375;SDS011;3728;42.266;24.944;2023-11-21T05:11:08;10.20;;;5.47;;
7375;SDS011;3728;42.266;24.944;2023-11-21T05:13:37;8.57;;;5.80;;
7375;SDS011;3728;42.266;24.944;2023-11-21T05:16:05;10.43;;;5.73;;
7375;SDS011;3728;42.266;24.944;2023-11-21T05:18:33;5.80;;;4.13;;
7375;SDS011;3728;42.266;24.944;2023-11-21T05:21:01;5.77;;;3.43;;
7375;SDS011;3728;42.266;24.944;2023-11-21T05:23:28;5.37;;;3.10;;
7375;SDS011;3728;42.266;24.944;2023-11-21T05:25:58;4.17;;;2.70;;
7375;SDS011;3728;42.266;24.944;2023-11-21T05:28:27;7.30;;;3.90;;
7375;SDS011;3728;42.266;24.944;2023-11-21T05:30:55;13.13;;;9.67;;
7375;SDS011;3728;42.266;24.944;2023-11-21T05:33:40;13.80;;;7.70;;
7375;SDS011;3728;42.266;24.944;2023-11-21T05:36:07;10.23;;;5.80;;
7375;SDS011;3728;42.266;24.944;2023-11-21T05:38:36;10.63;;;6.53;;
7375;SDS011;3728;42.266;24.944;2023-11-21T05:41:03;10.30;;;6.37;;
7375;SDS011;3728;42.266;24.944;2023-11-21T05:43:31;9.53;;;6.17;;
7375;SDS011;3728;42.266;24.944;2023-11-21T05:45:59;12.00;;;6.00;;
7375;SDS011;3728;42.266;24.944;2023-11-21T05:48:26;19.43;;;9.17;;
7375;SDS011;3728;42.266;24.944;2023-11-21T05:50:53;18.97;;;12.17;;
7375;SDS011;3728;42.266;24.944;2023-11-21T05:53:20;20.87;;;12.50;;
7375;SDS011;3728;42.266;24.944;2023-11-21T05:55:48;22.33;;;13.10;;
7375;SDS011;3728;42.266;24.944;2023-11-21T05:58:15;22.53;;;12.90;;
7375;SDS011;3728;42.266;24.944;2023-11-21T06:00:42;23.83;;;14.63;;
7375;SDS011;3728;42.266;24.944;2023-11-21T06:03:10;26.40;;;13.67;;
7375;SDS011;3728;42.266;24.944;2023-11-21T06:05:37;28.50;;;14.80;;
7375;SDS011;3728;42.266;24.944;2023-11-21T06:08:05;32.90;;;16.20;;
7375;SDS011;3728;42.266;24.944;2023-11-21T06:10:34;26.67;;;15.03;;
7375;SDS011;3728;42.266;24.944;2023-11-21T06:13:01;25.10;;;15.07;;
7375;SDS011;3728;42.266;24.944;2023-11-21T06:15:31;19.37;;;13.70;;
7375;SDS011;3728;42.266;24.944;2023-11-21T06:17:58;22.33;;;13.77;;
7375;SDS011;3728;42.266;24.944;2023-11-21T06:20:26;27.97;;;15.63;;
7375;SDS011;3728;42.266;24.944;2023-11-21T06:22:53;27.13;;;15.73;;
7375;SDS011;3728;42.266;24.944;2023-11-21T06:25:21;30.93;;;16.20;;
7375;SDS011;3728;42.266;24.944;2023-11-21T06:27:51;22.63;;;15.33;;
7375;SDS011;3728;42.266;24.944;2023-11-21T06:30:20;28.83;;;15.63;;
7375;SDS011;3728;42.266;24.944;2023-11-21T06:32:48;28.70;;;16.97;;
7375;SDS011;3728;42.266;24.944;2023-11-21T06:35:16;25.13;;;16.43;;
7375;SDS011;3728;42.266;24.944;2023-11-21T06:37:44;39.77;;;24.20;;
7375;SDS011;3728;42.266;24.944;2023-11-21T06:40:16;25.13;;;16.97;;
7375;SDS011;3728;42.266;24.944;2023-11-21T06:42:46;31.93;;;15.63;;
7375;SDS011;3728;42.266;24.944;2023-11-21T06:45:14;19.67;;;13.47;;
7375;SDS011;3728;42.266;24.944;2023-11-21T06:47:43;27.03;;;14.10;;
7375;SDS011;3728;42.266;24.944;2023-11-21T06:50:13;17.33;;;10.97;;
7375;SDS011;3728;42.266;24.944;2023-11-21T06:52:40;18.53;;;9.60;;
7375;SDS011;3728;42.266;24.944;2023-11-21T06:55:11;19.30;;;9.00;;
7375;SDS011;3728;42.266;24.944;2023-11-21T06:57:39;14.97;;;8.20;;
7375;SDS011;3728;42.266;24.944;2023-11-21T07:00:06;16.13;;;8.20;;
7375;SDS011;3728;42.266;24.944;2023-11-21T07:02:36;16.23;;;6.50;;
7375;SDS011;3728;42.266;24.944;2023-11-21T07:05:04;19.03;;;7.33;;
7375;SDS011;3728;42.266;24.944;2023-11-21T07:07:32;9.63;;;6.80;;
7375;SDS011;3728;42.266;24.944;2023-11-21T07:10:03;14.20;;;8.23;;
7375;SDS011;3728;42.266;24.944;2023-11-21T07:12:32;20.77;;;11.03;;
7375;SDS011;3728;42.266;24.944;2023-11-21T07:15:01;17.30;;;10.83;;
7375;SDS011;3728;42.266;24.944;2023-11-21T07:17:36;12.97;;;6.20;;
7375;SDS011;3728;42.266;24.944;2023-11-21T07:20:07;12.10;;;7.03;;
7375;SDS011;3728;42.266;24.944;2023-11-21T07:22:35;9.23;;;6.73;;
7375;SDS011;3728;42.266;24.944;2023-11-21T07:25:02;6.60;;;4.67;;
7375;SDS011;3728;42.266;24.944;2023-11-21T07:27:30;10.30;;;5.87;;
7375;SDS011;3728;42.266;24.944;2023-11-21T07:30:03;22.00;;;17.50;;
7375;SDS011;3728;42.266;24.944;2023-11-21T07:32:35;51.57;;;33.40;;
7375;SDS011;3728;42.266;24.944;2023-11-21T07:35:04;34.47;;;23.83;;
7375;SDS011;3728;42.266;24.944;2023-11-21T07:37:31;18.63;;;14.87;;
7375;SDS011;3728;42.266;24.944;2023-11-21T07:40:19;28.13;;;20.73;;
7375;SDS011;3728;42.266;24.944;2023-11-21T07:42:46;9.63;;;7.40;;
7375;SDS011;3728;42.266;24.944;2023-11-21T07:45:14;11.43;;;8.37;;
7375;SDS011;3728;42.266;24.944;2023-11-21T07:47:41;12.33;;;10.30;;
7375;SDS011;3728;42.266;24.944;2023-11-21T07:50:09;3.57;;;2.67;;
7375;SDS011;3728;42.266;24.944;2023-11-21T07:52:37;1.53;;;1.43;;
7375;SDS011;3728;42.266;24.944;2023-11-21T07:55:04;2.13;;;1.70;;
7375;SDS011;3728;42.266;24.944;2023-11-21T07:57:32;12.03;;;8.73;;
7375;SDS011;3728;42.266;24.944;2023-11-21T07:59:59;2.10;;;1.40;;
7375;SDS011;3728;42.266;24.944;2023-11-21T08:02:27;2.63;;;1.37;;
7375;SDS011;3728;42.266;24.944;2023-11-21T08:04:54;2.33;;;1.20;;
7375;SDS011;3728;42.266;24.944;2023-11-21T08:07:23;4.00;;;1.20;;
7375;SDS011;3728;42.266;24.944;2023-11-21T08:09:51;2.30;;;1.57;;
7375;SDS011;3728;42.266;24.944;2023-11-21T08:12:19;1.80;;;1.30;;
7375;SDS011;3728;42.266;24.944;2023-11-21T08:14:46;1.67;;;1.20;;
7375;SDS011;3728;42.266;24.944;2023-11-21T08:17:14;3.13;;;1.20;;
7375;SDS011;3728;42.266;24.944;2023-11-21T08:19:46;2.47;;;1.50;;
7375;SDS011;3728;42.266;24.944;2023-11-21T08:22:16;3.13;;;1.43;;
7375;SDS011;3728;42.266;24.944;2023-11-21T08:24:44;1.40;;;1.30;;
7375;SDS011;3728;42.266;24.944;2023-11-21T08:27:13;2.30;;;1.50;;
7375;SDS011;3728;42.266;24.944;2023-11-21T08:29:42;2.33;;;1.20;;
7375;SDS011;3728;42.266;24.944;2023-11-21T08:32:10;6.67;;;5.20;;
7375;SDS011;3728;42.266;24.944;2023-11-21T08:34:37;12.47;;;10.43;;
7375;SDS011;3728;42.266;24.944;2023-11-21T08:37:06;2.00;;;1.20;;
7375;SDS011;3728;42.266;24.944;2023-11-21T08:39:34;1.37;;;1.17;;
7375;SDS011;3728;42.266;24.944;2023-11-21T08:42:01;2.07;;;1.40;;
7375;SDS011;3728;42.266;24.944;2023-11-21T08:44:29;1.90;;;1.63;;
7375;SDS011;3728;42.266;24.944;2023-11-21T08:46:57;2.70;;;1.77;;
7375;SDS011;3728;42.266;24.944;2023-11-21T08:49:25;5.93;;;2.00;;
7375;SDS011;3728;42.266;24.944;2023-11-21T08:51:54;3.23;;;2.00;;
7375;SDS011;3728;42.266;24.944;2023-11-21T08:54:21;3.00;;;1.90;;
7375;SDS011;3728;42.266;24.944;2023-11-21T08:56:50;4.67;;;1.93;;
7375;SDS011;3728;42.266;24.944;2023-11-21T08:59:17;2.73;;;2.50;;
7375;SDS011;3728;42.266;24.944;2023-11-21T09:01:44;6.60;;;2.27;;
7375;SDS011;3728;42.266;24.944;2023-11-21T09:04:11;9.83;;;3.10;;
7375;SDS011;3728;42.266;24.944;2023-11-21T09:06:39;8.40;;;3.20;;
7375;SDS011;3728;42.266;24.944;2023-11-21T09:09:06;13.80;;;2.93;;
7375;SDS011;3728;42.266;24.944;2023-11-21T09:11:35;4.77;;;2.63;;
7375;SDS011;3728;42.266;24.944;2023-11-21T09:14:03;6.10;;;3.03;;
7375;SDS011;3728;42.266;24.944;2023-11-21T09:16:30;5.50;;;2.60;;
7375;SDS011;3728;42.266;24.944;2023-11-21T09:18:58;4.47;;;2.83;;
7375;SDS011;3728;42.266;24.944;2023-11-21T09:21:28;3.53;;;2.30;;
7375;SDS011;3728;42.266;24.944;2023-11-21T09:23:55;2.90;;;2.33;;
7375;SDS011;3728;42.266;24.944;2023-11-21T09:26:22;4.60;;;2.50;;
7375;SDS011;3728;42.266;24.944;2023-11-21T09:28:50;6.63;;;2.50;;
7375;SDS011;3728;42.266;24.944;2023-11-21T09:31:17;4.27;;;2.03;;
7375;SDS011;3728;42.266;24.944;2023-11-21T09:33:46;5.87;;;2.60;;
7375;SDS011;3728;42.266;24.944;2023-11-21T09:36:14;3.83;;;2.13;;
7375;SDS011;3728;42.266;24.944;2023-11-21T09:38:41;5.00;;;2.33;;
7375;SDS011;3728;42.266;24.944;2023-11-21T09:41:11;4.93;;;2.03;;
7375;SDS011;3728;42.266;24.944;2023-11-21T09:43:56;4.87;;;1.93;;
7375;SDS011;3728;42.266;24.944;2023-11-21T09:46:27;3.23;;;1.90;;
7375;SDS011;3728;42.266;24.944;2023-11-21T09:48:57;7.20;;;2.43;;
7375;SDS011;3728;42.266;24.944;2023-11-21T09:51:31;3.53;;;1.90;;
7375;SDS011;3728;42.266;24.944;2023-11-21T09:54:05;7.47;;;2.10;;
7375;SDS011;3728;42.266;24.944;2023-11-21T09:56:35;3.43;;;1.83;;
7375;SDS011;3728;42.266;24.944;2023-11-21T09:59:04;2.90;;;1.90;;
7375;SDS011;3728;42.266;24.944;2023-11-21T10:01:37;2.43;;;2.00;;
7375;SDS011;3728;42.266;24.944;2023-11-21T10:04:07;5.17;;;2.70;;
7375;SDS011;3728;42.266;24.944;2023-11-21T10:06:40;7.10;;;2.43;;
7375;SDS011;3728;42.266;24.944;2023-11-21T10:09:09;8.43;;;2.40;;
7375;SDS011;3728;42.266;24.944;2023-11-21T10:11:41;2.47;;;2.20;;
7375;SDS011;3728;42.266;24.944;2023-11-21T10:14:12;2.27;;;2.07;;
7375;SDS011;3728;42.266;24.944;2023-11-21T10:16:40;3.53;;;2.00;;
7375;SDS011;3728;42.266;24.944;2023-11-21T10:19:10;4.20;;;2.30;;
7375;SDS011;3728;42.266;24.944;2023-11-21T10:21:42;4.30;;;2.40;;
7375;SDS011;3728;42.266;24.944;2023-11-21T10:24:09;4.00;;;2.10;;
7375;SDS011;3728;42.266;24.944;2023-11-21T10:26:37;4.23;;;2.53;;
7375;SDS011;3728;42.266;24.944;2023-11-21T10:29:18;4.10;;;2.43;;
7375;SDS011;3728;42.266;24.944;2023-11-21T10:31:51;4.27;;;2.30;;
7375;SDS011;3728;42.266;24.944;2023-11-21T10:34:21;5.27;;;2.87;;
7375;SDS011;3728;42.266;24.944;2023-11-21T10:37:11;6.70;;;3.17;;
7375;SDS011;3728;42.266;24.944;2023-11-21T10:39:40;5.53;;;2.53;;
7375;SDS011;3728;42.266;24.944;2023-11-21T10:42:10;4.70;;;2.33;;
7375;SDS011;3728;42.266;24.944;2023-11-21T10:44:38;2.23;;;2.03;;
7375;SDS011;3728;42.266;24.944;2023-11-21T10:47:11;4.53;;;2.57;;
7375;SDS011;3728;42.266;24.944;2023-11-21T10:49:38;5.00;;;2.40;;
7375;SDS011;3728;42.266;24.944;2023-11-21T10:52:07;3.20;;;2.40;;
7375;SDS011;3728;42.266;24.944;2023-11-21T10:54:34;4.73;;;2.57;;
7375;SDS011;3728;42.266;24.944;2023-11-21T10:57:05;2.40;;;1.83;;
7375;SDS011;3728;42.266;24.944;2023-11-21T10:59:33;2.47;;;1.93;;
7375;SDS011;3728;42.266;24.944;2023-11-21T11:02:07;2.70;;;2.33;;
7375;SDS011;3728;42.266;24.944;2023-11-21T11:04:55;2.83;;;2.37;;
7375;SDS011;3728;42.266;24.944;2023-11-21T11:07:27;6.03;;;3.67;;
7375;SDS011;3728;42.266;24.944;2023-11-21T11:09:54;3.30;;;2.50;;
7375;SDS011;3728;42.266;24.944;2023-11-21T11:12:23;4.73;;;2.70;;
7375;SDS011;3728;42.266;24.944;2023-11-21T11:14:51;3.97;;;2.10;;
7375;SDS011;3728;42.266;24.944;2023-11-21T11:17:19;2.43;;;2.10;;
7375;SDS011;3728;42.266;24.944;2023-11-21T11:19:47;3.00;;;2.13;;
7375;SDS011;3728;42.266;24.944;2023-11-21T11:28:20;2.17;;;1.93;;
7375;SDS011;3728;42.266;24.944;2023-11-21T11:34:19;3.53;;;2.47;;
7375;SDS011;3728;42.266;24.944;2023-11-21T11:37:00;3.03;;;2.30;;
7375;SDS011;3728;42.266;24.944;2023-11-21T11:39:31;3.43;;;2.60;;
7375;SDS011;3728;42.266;24.944;2023-11-21T11:42:04;3.20;;;2.50;;
7375;SDS011;3728;42.266;24.944;2023-11-21T11:47:14;6.03;;;3.00;;
7375;SDS011;3728;42.266;24.944;2023-11-21T11:52:52;9.40;;;2.60;;
7375;SDS011;3728;42.266;24.944;2023-11-21T11:55:21;4.00;;;2.30;;
7375;SDS011;3728;42.266;24.944;2023-11-21T11:57:51;4.27;;;2.30;;
7375;SDS011;3728;42.266;24.944;2023-11-21T12:02:54;6.97;;;3.50;;
7375;SDS011;3728;42.266;24.944;2023-11-21T12:05:26;7.37;;;2.80;;
7375;SDS011;3728;42.266;24.944;2023-11-21T12:08:02;3.27;;;2.60;;
7375;SDS011;3728;42.266;24.944;2023-11-21T12:10:35;12.60;;;3.17;;
7375;SDS011;3728;42.266;24.944;2023-11-21T12:13:07;4.27;;;3.00;;
7375;SDS011;3728;42.266;24.944;2023-11-21T12:15:37;3.33;;;2.80;;
7375;SDS011;3728;42.266;24.944;2023-11-21T12:18:07;5.67;;;3.20;;
7375;SDS011;3728;42.266;24.944;2023-11-21T12:20:34;4.00;;;2.97;;
7375;SDS011;3728;42.266;24.944;2023-11-21T12:23:09;5.60;;;3.27;;
7375;SDS011;3728;42.266;24.944;2023-11-21T12:25:37;5.83;;;3.17;;
7375;SDS011;3728;42.266;24.944;2023-11-21T12:28:08;6.90;;;3.37;;
7375;SDS011;3728;42.266;24.944;2023-11-21T12:30:36;6.57;;;3.80;;
7375;SDS011;3728;42.266;24.944;2023-11-21T12:33:05;3.93;;;3.53;;
7375;SDS011;3728;42.266;24.944;2023-11-21T12:35:36;5.67;;;4.10;;
7375;SDS011;3728;42.266;24.944;2023-11-21T12:38:04;5.77;;;4.13;;
7375;SDS011;3728;42.266;24.944;2023-11-21T12:40:32;6.60;;;4.70;;
7375;SDS011;3728;42.266;24.944;2023-11-21T12:43:21;5.80;;;4.20;;
7375;SDS011;3728;42.266;24.944;2023-11-21T12:45:49;4.50;;;4.00;;
7375;SDS011;3728;42.266;24.944;2023-11-21T12:48:17;8.07;;;4.10;;
7375;SDS011;3728;42.266;24.944;2023-11-21T12:51:11;5.23;;;3.63;;
7375;SDS011;3728;42.266;24.944;2023-11-21T12:53:41;8.20;;;3.63;;
7375;SDS011;3728;42.266;24.944;2023-11-21T12:56:12;4.00;;;3.60;;
7375;SDS011;3728;42.266;24.944;2023-11-21T12:58:43;5.10;;;3.90;;
7375;SDS011;3728;42.266;24.944;2023-11-21T13:01:14;8.10;;;4.30;;
7375;SDS011;3728;42.266;24.944;2023-11-21T13:03:48;7.43;;;4.20;;
7375;SDS011;3728;42.266;24.944;2023-11-21T13:06:18;4.83;;;4.17;;
7375;SDS011;3728;42.266;24.944;2023-11-21T13:08:46;4.77;;;3.93;;
7375;SDS011;3728;42.266;24.944;2023-11-21T13:11:13;4.93;;;4.00;;
7375;SDS011;3728;42.266;24.944;2023-11-21T13:13:41;5.20;;;3.80;;
7375;SDS011;3728;42.266;24.944;2023-11-21T13:16:10;6.60;;;3.87;;
7375;SDS011;3728;42.266;24.944;2023-11-21T13:18:37;4.97;;;3.50;;
7375;SDS011;3728;42.266;24.944;2023-11-21T13:21:07;16.53;;;4.47;;
7375;SDS011;3728;42.266;24.944;2023-11-21T13:23:43;6.97;;;4.10;;
7375;SDS011;3728;42.266;24.944;2023-11-21T13:26:13;7.83;;;4.07;;
7375;SDS011;3728;42.266;24.944;2023-11-21T13:28:42;36.93;;;12.57;;
7375;SDS011;3728;42.266;24.944;2023-11-21T13:31:13;47.87;;;15.87;;
7375;SDS011;3728;42.266;24.944;2023-11-21T13:33:53;52.10;;;10.57;;
7375;SDS011;3728;42.266;24.944;2023-11-21T13:36:30;21.07;;;4.47;;
7375;SDS011;3728;42.266;24.944;2023-11-21T13:39:02;10.00;;;3.40;;
7375;SDS011;3728;42.266;24.944;2023-11-21T13:41:35;9.37;;;3.63;;
7375;SDS011;3728;42.266;24.944;2023-11-21T13:44:05;10.43;;;3.60;;
7375;SDS011;3728;42.266;24.944;2023-11-21T13:46:43;9.63;;;3.37;;
7375;SDS011;3728;42.266;24.944;2023-11-21T13:49:11;9.37;;;3.80;;
7375;SDS011;3728;42.266;24.944;2023-11-21T13:51:41;10.23;;;4.43;;
7375;SDS011;3728;42.266;24.944;2023-11-21T13:54:11;8.93;;;4.70;;
7375;SDS011;3728;42.266;24.944;2023-11-21T13:56:39;11.90;;;5.30;;
7375;SDS011;3728;42.266;24.944;2023-11-21T13:59:10;15.30;;;8.50;;
7375;SDS011;3728;42.266;24.944;2023-11-21T14:01:49;24.87;;;13.60;;
7375;SDS011;3728;42.266;24.944;2023-11-21T14:04:26;34.93;;;16.70;;
7375;SDS011;3728;42.266;24.944;2023-11-21T14:06:57;33.53;;;14.00;;
7375;SDS011;3728;42.266;24.944;2023-11-21T14:09:27;29.57;;;12.27;;
7375;SDS011;3728;42.266;24.944;2023-11-21T14:12:06;29.60;;;14.60;;
7375;SDS011;3728;42.266;24.944;2023-11-21T14:14:34;24.43;;;13.50;;
7375;SDS011;3728;42.266;24.944;2023-11-21T14:17:02;21.60;;;11.57;;
7375;SDS011;3728;42.266;24.944;2023-11-21T14:19:33;15.33;;;7.67;;
7375;SDS011;3728;42.266;24.944;2023-11-21T14:22:03;17.30;;;8.27;;
7375;SDS011;3728;42.266;24.944;2023-11-21T14:24:30;16.10;;;8.00;;
7375;SDS011;3728;42.266;24.944;2023-11-21T14:26:58;17.03;;;7.10;;
7375;SDS011;3728;42.266;24.944;2023-11-21T14:29:26;13.10;;;6.43;;
7375;SDS011;3728;42.266;24.944;2023-11-21T14:31:56;11.50;;;7.37;;
7375;SDS011;3728;42.266;24.944;2023-11-21T14:34:24;11.27;;;6.67;;
7375;SDS011;3728;42.266;24.944;2023-11-21T14:36:53;13.43;;;6.43;;
7375;SDS011;3728;42.266;24.944;2023-11-21T14:39:21;11.80;;;6.60;;
7375;SDS011;3728;42.266;24.944;2023-11-21T14:41:54;14.83;;;6.83;;
7375;SDS011;3728;42.266;24.944;2023-11-21T14:44:23;17.00;;;7.50;;
7375;SDS011;3728;42.266;24.944;2023-11-21T14:46:54;18.10;;;8.17;;
7375;SDS011;3728;42.266;24.944;2023-11-21T14:49:27;21.60;;;8.13;;
7375;SDS011;3728;42.266;24.944;2023-11-21T14:52:03;21.03;;;7.77;;
7375;SDS011;3728;42.266;24.944;2023-11-21T14:54:34;16.60;;;7.63;;
7375;SDS011;3728;42.266;24.944;2023-11-21T14:57:11;18.23;;;7.53;;
7375;SDS011;3728;42.266;24.944;2023-11-21T14:59:48;18.57;;;10.13;;
7375;SDS011;3728;42.266;24.944;2023-11-21T15:02:26;22.07;;;10.83;;
7375;SDS011;3728;42.266;24.944;2023-11-21T15:05:13;22.90;;;11.13;;
7375;SDS011;3728;42.266;24.944;2023-11-21T15:07:44;25.67;;;11.10;;
7375;SDS011;3728;42.266;24.944;2023-11-21T15:10:12;24.53;;;11.83;;
7375;SDS011;3728;42.266;24.944;2023-11-21T15:12:42;30.47;;;15.73;;
7375;SDS011;3728;42.266;24.944;2023-11-21T15:15:11;35.57;;;17.87;;
7375;SDS011;3728;42.266;24.944;2023-11-21T15:17:40;35.93;;;17.53;;
7375;SDS011;3728;42.266;24.944;2023-11-21T15:20:10;58.97;;;27.83;;
7375;SDS011;3728;42.266;24.944;2023-11-21T15:22:45;66.43;;;34.77;;